sensor_id;sensor_type;location;lat;lon;timestamp;temperature;humidity
20102;DHT22;10210;52.284;9.892;2023-04-03T00:00:41;6.30;99.90
20102;DHT22;10210;52.284;9.892;2023-04-03T00:03:07;6.40;99.90
20102;DHT22;10210;52.284;9.892;2023-04-03T00:05:33;6.30;99.90
20102;DHT22;10210;52.284;9.892;2023-04-03T00:07:58;6.30;99.90
20102;DHT22;10210;52.284;9.892;2023-04-03T00:10:24;6.30;99.90
20102;DHT22;10210;52.284;9.892;2023-04-03T00:12:50;6.30;99.90
20102;DHT22;10210;52.284;9.892;2023-04-03T00:15:17;6.30;99.90
20102;DHT22;10210;52.284;9.892;2023-04-03T00:17:42;6.20;99.90
20102;DHT22;10210;52.284;9.892;2023-04-03T00:20:08;6.20;99.90
20102;DHT22;10210;52.284;9.892;2023-04-03T00:22:34;6.20;99.90
20102;DHT22;10210;52.284;9.892;2023-04-03T00:25:00;6.20;99.90
20102;DHT22;10210;52.284;9.892;2023-04-03T00:27:26;6.20;99.90
20102;DHT22;10210;52.284;9.892;2023-04-03T00:29:51;6.20;99.90
20102;DHT22;10210;52.284;9.892;2023-04-03T00:32:17;6.10;99.90
20102;DHT22;10210;52.284;9.892;2023-04-03T00:34:42;6.10;99.90
20102;DHT22;10210;52.284;9.892;2023-04-03T00:37:09;6.10;99.90
20102;DHT22;10210;52.284;9.892;2023-04-03T00:39:34;6.10;99.90
20102;DHT22;10210;52.284;9.892;2023-04-03T00:42:00;6.10;99.90
20102;DHT22;10210;52.284;9.892;2023-04-03T00:46:54;6.10;99.90
20102;DHT22;10210;52.284;9.892;2023-04-03T00:49:19;6.10;99.90
20102;DHT22;10210;52.284;9.892;2023-04-03T00:51:46;6.10;99.90
20102;DHT22;10210;52.284;9.892;2023-04-03T00:54:12;6.10;99.90
20102;DHT22;10210;52.284;9.892;2023-04-03T00:56:38;6.10;99.90
20102;DHT22;10210;52.284;9.892;2023-04-03T00:59:18;6.10;99.90
20102;DHT22;10210;52.284;9.892;2023-04-03T01:01:51;6.10;99.90
20102;DHT22;10210;52.284;9.892;2023-04-03T01:04:37;6.10;99.90
20102;DHT22;10210;52.284;9.892;2023-04-03T01:07:16;6.00;99.90
20102;DHT22;10210;52.284;9.892;2023-04-03T01:09:45;6.00;99.90
20102;DHT22;10210;52.284;9.892;2023-04-03T01:12:27;6.00;99.90
20102;DHT22;10210;52.284;9.892;2023-04-03T01:14:57;6.00;99.90
20102;DHT22;10210;52.284;9.892;2023-04-03T01:17:37;6.00;99.90
20102;DHT22;10210;52.284;9.892;2023-04-03T01:28:09;5.90;99.90
20102;DHT22;10210;52.284;9.892;2023-04-03T01:33:48;5.80;99.90
20102;DHT22;10210;52.284;9.892;2023-04-03T01:36:23;5.80;99.90
20102;DHT22;10210;52.284;9.892;2023-04-03T01:38:51;5.70;99.90
20102;DHT22;10210;52.284;9.892;2023-04-03T01:41:18;5.60;99.90
20102;DHT22;10210;52.284;9.892;2023-04-03T01:43:48;5.60;99.90
20102;DHT22;10210;52.284;9.892;2023-04-03T01:46:16;5.60;99.90
20102;DHT22;10210;52.284;9.892;2023-04-03T01:48:42;5.60;99.90
20102;DHT22;10210;52.284;9.892;2023-04-03T01:51:08;5.60;99.90
20102;DHT22;10210;52.284;9.892;2023-04-03T01:53:34;5.50;99.90
20102;DHT22;10210;52.284;9.892;2023-04-03T01:56:00;5.50;99.90
20102;DHT22;10210;52.284;9.892;2023-04-03T01:58:25;5.50;99.90
20102;DHT22;10210;52.284;9.892;2023-04-03T02:00:52;5.50;99.90
20102;DHT22;10210;52.284;9.892;2023-04-03T02:03:18;5.40;99.90
20102;DHT22;10210;52.284;9.892;2023-04-03T02:05:45;5.40;99.90
20102;DHT22;10210;52.284;9.892;2023-04-03T02:08:11;5.40;99.90
20102;DHT22;10210;52.284;9.892;2023-04-03T02:10:38;5.40;99.90
20102;DHT22;10210;52.284;9.892;2023-04-03T02:13:06;5.40;99.90
20102;DHT22;10210;52.284;9.892;2023-04-03T02:15:32;5.30;99.90
20102;DHT22;10210;52.284;9.892;2023-04-03T02:17:58;5.30;99.90
20102;DHT22;10210;52.284;9.892;2023-04-03T02:20:24;5.30;99.90
20102;DHT22;10210;52.284;9.892;2023-04-03T02:22:50;5.30;99.90
20102;DHT22;10210;52.284;9.892;2023-04-03T02:25:16;5.30;99.90
20102;DHT22;10210;52.284;9.892;2023-04-03T02:27:43;5.20;99.90
20102;DHT22;10210;52.284;9.892;2023-04-03T02:30:09;5.20;99.90
20102;DHT22;10210;52.284;9.892;2023-04-03T02:32:36;5.20;99.90
20102;DHT22;10210;52.284;9.892;2023-04-03T02:35:01;5.10;99.90
20102;DHT22;10210;52.284;9.892;2023-04-03T02:37:28;5.10;99.90
20102;DHT22;10210;52.284;9.892;2023-04-03T02:39:54;5.10;99.90
20102;DHT22;10210;52.284;9.892;2023-04-03T02:42:20;5.10;99.90
20102;DHT22;10210;52.284;9.892;2023-04-03T02:44:46;5.10;99.90
20102;DHT22;10210;52.284;9.892;2023-04-03T02:47:11;5.00;99.90
20102;DHT22;10210;52.284;9.892;2023-04-03T02:49:37;5.00;99.90
20102;DHT22;10210;52.284;9.892;2023-04-03T02:52:03;5.00;99.90
20102;DHT22;10210;52.284;9.892;2023-04-03T02:54:29;5.00;99.90
20102;DHT22;10210;52.284;9.892;2023-04-03T02:56:58;5.00;99.90
20102;DHT22;10210;52.284;9.892;2023-04-03T02:59:24;4.90;99.90
20102;DHT22;10210;52.284;9.892;2023-04-03T03:01:50;4.90;99.90
20102;DHT22;10210;52.284;9.892;2023-04-03T03:04:16;4.90;99.90
20102;DHT22;10210;52.284;9.892;2023-04-03T03:06:42;4.90;99.90
20102;DHT22;10210;52.284;9.892;2023-04-03T03:09:08;4.90;99.90
20102;DHT22;10210;52.284;9.892;2023-04-03T03:11:34;4.80;99.90
20102;DHT22;10210;52.284;9.892;2023-04-03T03:14:00;4.80;99.90
20102;DHT22;10210;52.284;9.892;2023-04-03T03:16:26;4.80;99.90
20102;DHT22;10210;52.284;9.892;2023-04-03T03:18:51;4.80;99.90
20102;DHT22;10210;52.284;9.892;2023-04-03T03:21:17;4.80;99.90
20102;DHT22;10210;52.284;9.892;2023-04-03T03:23:43;4.70;99.90
20102;DHT22;10210;52.284;9.892;2023-04-03T03:26:11;4.80;99.90
20102;DHT22;10210;52.284;9.892;2023-04-03T03:28:38;4.70;99.90
20102;DHT22;10210;52.284;9.892;2023-04-03T03:31:06;4.70;99.90
20102;DHT22;10210;52.284;9.892;2023-04-03T03:33:34;4.70;99.90
20102;DHT22;10210;52.284;9.892;2023-04-03T03:36:00;4.70;99.90
20102;DHT22;10210;52.284;9.892;2023-04-03T03:38:28;4.70;99.90
20102;DHT22;10210;52.284;9.892;2023-04-03T03:40:54;4.70;99.90
20102;DHT22;10210;52.284;9.892;2023-04-03T03:43:23;4.70;99.90
20102;DHT22;10210;52.284;9.892;2023-04-03T03:45:52;4.70;99.90
20102;DHT22;10210;52.284;9.892;2023-04-03T03:48:19;4.70;99.90
20102;DHT22;10210;52.284;9.892;2023-04-03T03:50:46;4.60;99.90
20102;DHT22;10210;52.284;9.892;2023-04-03T03:53:16;4.60;99.90
20102;DHT22;10210;52.284;9.892;2023-04-03T03:55:42;4.60;99.90
20102;DHT22;10210;52.284;9.892;2023-04-03T03:58:08;4.60;99.90
20102;DHT22;10210;52.284;9.892;2023-04-03T04:00:34;4.60;99.90
20102;DHT22;10210;52.284;9.892;2023-04-03T04:03:00;4.60;99.90
20102;DHT22;10210;52.284;9.892;2023-04-03T04:05:26;4.60;99.90
20102;DHT22;10210;52.284;9.892;2023-04-03T04:07:52;4.50;99.90
20102;DHT22;10210;52.284;9.892;2023-04-03T04:10:18;4.50;99.90
20102;DHT22;10210;52.284;9.892;2023-04-03T04:12:46;4.50;99.90
20102;DHT22;10210;52.284;9.892;2023-04-03T04:15:14;4.50;99.90
20102;DHT22;10210;52.284;9.892;2023-04-03T04:17:40;4.50;99.90
20102;DHT22;10210;52.284;9.892;2023-04-03T04:20:06;4.40;99.90
20102;DHT22;10210;52.284;9.892;2023-04-03T04:22:32;4.40;99.90
20102;DHT22;10210;52.284;9.892;2023-04-03T04:24:58;4.40;99.90
20102;DHT22;10210;52.284;9.892;2023-04-03T04:27:24;4.30;99.90
20102;DHT22;10210;52.284;9.892;2023-04-03T04:29:50;4.30;99.90
20102;DHT22;10210;52.284;9.892;2023-04-03T04:32:16;4.20;99.90
20102;DHT22;10210;52.284;9.892;2023-04-03T04:34:42;4.20;99.90
20102;DHT22;10210;52.284;9.892;2023-04-03T04:37:08;4.20;99.90
20102;DHT22;10210;52.284;9.892;2023-04-03T04:39:34;4.10;99.90
20102;DHT22;10210;52.284;9.892;2023-04-03T04:42:01;4.10;99.90
20102;DHT22;10210;52.284;9.892;2023-04-03T04:44:27;4.10;99.90
20102;DHT22;10210;52.284;9.892;2023-04-03T04:46:53;4.00;99.90
20102;DHT22;10210;52.284;9.892;2023-04-03T04:49:19;4.10;99.90
20102;DHT22;10210;52.284;9.892;2023-04-03T04:51:45;4.00;99.90
20102;DHT22;10210;52.284;9.892;2023-04-03T04:54:10;4.00;99.90
20102;DHT22;10210;52.284;9.892;2023-04-03T04:56:36;4.00;99.90
20102;DHT22;10210;52.284;9.892;2023-04-03T04:59:02;4.10;99.90
20102;DHT22;10210;52.284;9.892;2023-04-03T05:01:28;4.00;99.90
20102;DHT22;10210;52.284;9.892;2023-04-03T05:03:54;4.00;99.90
20102;DHT22;10210;52.284;9.892;2023-04-03T05:06:23;4.10;99.90
20102;DHT22;10210;52.284;9.892;2023-04-03T05:08:49;4.10;99.90
20102;DHT22;10210;52.284;9.892;2023-04-03T05:11:16;4.20;99.90
20102;DHT22;10210;52.284;9.892;2023-04-03T05:13:44;4.20;99.90
20102;DHT22;10210;52.284;9.892;2023-04-03T05:16:12;4.30;99.90
20102;DHT22;10210;52.284;9.892;2023-04-03T05:18:38;4.30;99.90
20102;DHT22;10210;52.284;9.892;2023-04-03T05:21:07;4.40;99.90
20102;DHT22;10210;52.284;9.892;2023-04-03T05:23:36;4.40;99.90
20102;DHT22;10210;52.284;9.892;2023-04-03T05:26:02;4.50;99.90
20102;DHT22;10210;52.284;9.892;2023-04-03T05:28:30;4.50;99.90
20102;DHT22;10210;52.284;9.892;2023-04-03T05:30:58;4.50;99.90
20102;DHT22;10210;52.284;9.892;2023-04-03T05:33:24;4.50;99.90
20102;DHT22;10210;52.284;9.892;2023-04-03T05:35:53;4.50;99.90
20102;DHT22;10210;52.284;9.892;2023-04-03T05:38:20;4.50;99.90
20102;DHT22;10210;52.284;9.892;2023-04-03T05:40:45;4.50;99.90
20102;DHT22;10210;52.284;9.892;2023-04-03T05:43:11;4.50;99.90
20102;DHT22;10210;52.284;9.892;2023-04-03T05:45:37;4.50;99.90
20102;DHT22;10210;52.284;9.892;2023-04-03T05:48:05;4.50;99.90
20102;DHT22;10210;52.284;9.892;2023-04-03T05:50:31;4.50;99.90
20102;DHT22;10210;52.284;9.892;2023-04-03T05:52:59;4.50;99.90
20102;DHT22;10210;52.284;9.892;2023-04-03T05:55:25;4.50;99.90
20102;DHT22;10210;52.284;9.892;2023-04-03T05:57:52;4.60;99.90
20102;DHT22;10210;52.284;9.892;2023-04-03T06:00:19;4.50;99.90
20102;DHT22;10210;52.284;9.892;2023-04-03T06:02:44;4.60;99.90
20102;DHT22;10210;52.284;9.892;2023-04-03T06:05:10;4.60;99.90
20102;DHT22;10210;52.284;9.892;2023-04-03T06:07:37;4.60;99.90
20102;DHT22;10210;52.284;9.892;2023-04-03T06:10:03;4.60;99.90
20102;DHT22;10210;52.284;9.892;2023-04-03T06:12:29;4.60;99.90
20102;DHT22;10210;52.284;9.892;2023-04-03T06:14:55;4.70;99.90
20102;DHT22;10210;52.284;9.892;2023-04-03T06:17:20;4.70;99.90
20102;DHT22;10210;52.284;9.892;2023-04-03T06:19:47;4.70;99.90
20102;DHT22;10210;52.284;9.892;2023-04-03T06:22:13;4.70;99.90
20102;DHT22;10210;52.284;9.892;2023-04-03T06:24:41;4.70;99.90
20102;DHT22;10210;52.284;9.892;2023-04-03T06:27:08;4.80;99.90
20102;DHT22;10210;52.284;9.892;2023-04-03T06:29:36;4.80;99.90
20102;DHT22;10210;52.284;9.892;2023-04-03T06:32:02;4.90;99.90
20102;DHT22;10210;52.284;9.892;2023-04-03T06:34:27;5.00;99.90
20102;DHT22;10210;52.284;9.892;2023-04-03T06:36:53;5.00;99.90
20102;DHT22;10210;52.284;9.892;2023-04-03T06:39:20;5.00;99.90
20102;DHT22;10210;52.284;9.892;2023-04-03T06:41:48;5.10;99.90
20102;DHT22;10210;52.284;9.892;2023-04-03T06:44:14;5.10;99.90
20102;DHT22;10210;52.284;9.892;2023-04-03T06:46:41;5.20;99.90
20102;DHT22;10210;52.284;9.892;2023-04-03T06:49:08;5.20;99.90
20102;DHT22;10210;52.284;9.892;2023-04-03T06:51:35;5.30;99.90
20102;DHT22;10210;52.284;9.892;2023-04-03T06:54:02;5.30;99.90
20102;DHT22;10210;52.284;9.892;2023-04-03T06:56:30;5.40;99.90
20102;DHT22;10210;52.284;9.892;2023-04-03T06:58:56;5.40;99.90
20102;DHT22;10210;52.284;9.892;2023-04-03T07:01:27;5.40;99.90
20102;DHT22;10210;52.284;9.892;2023-04-03T07:03:54;5.50;99.90
20102;DHT22;10210;52.284;9.892;2023-04-03T07:06:22;5.60;99.90
20102;DHT22;10210;52.284;9.892;2023-04-03T07:08:48;5.60;99.90
20102;DHT22;10210;52.284;9.892;2023-04-03T07:11:14;5.70;99.90
20102;DHT22;10210;52.284;9.892;2023-04-03T07:13:41;5.80;99.90
20102;DHT22;10210;52.284;9.892;2023-04-03T07:16:08;5.80;99.90
20102;DHT22;10210;52.284;9.892;2023-04-03T07:18:35;5.90;99.90
20102;DHT22;10210;52.284;9.892;2023-04-03T07:21:00;6.00;99.90
20102;DHT22;10210;52.284;9.892;2023-04-03T07:23:26;6.00;99.90
20102;DHT22;10210;52.284;9.892;2023-04-03T07:25:53;6.10;99.90
20102;DHT22;10210;52.284;9.892;2023-04-03T07:28:20;6.10;99.90
20102;DHT22;10210;52.284;9.892;2023-04-03T07:31:06;6.20;99.90
20102;DHT22;10210;52.284;9.892;2023-04-03T07:33:34;6.30;99.90
20102;DHT22;10210;52.284;9.892;2023-04-03T07:36:01;6.40;99.90
20102;DHT22;10210;52.284;9.892;2023-04-03T07:38:28;6.50;99.90
20102;DHT22;10210;52.284;9.892;2023-04-03T07:40:54;6.60;99.90
20102;DHT22;10210;52.284;9.892;2023-04-03T07:43:20;6.70;99.90
20102;DHT22;10210;52.284;9.892;2023-04-03T07:45:48;6.80;99.90
20102;DHT22;10210;52.284;9.892;2023-04-03T07:48:17;7.00;99.90
20102;DHT22;10210;52.284;9.892;2023-04-03T07:50:45;7.30;99.90
20102;DHT22;10210;52.284;9.892;2023-04-03T07:53:10;7.70;99.90
20102;DHT22;10210;52.284;9.892;2023-04-03T07:55:36;8.10;99.90
20102;DHT22;10210;52.284;9.892;2023-04-03T07:58:11;8.70;99.90
20102;DHT22;10210;52.284;9.892;2023-04-03T08:00:40;9.20;99.90
20102;DHT22;10210;52.284;9.892;2023-04-03T08:03:06;9.80;99.90
20102;DHT22;10210;52.284;9.892;2023-04-03T08:05:42;10.20;99.90
20102;DHT22;10210;52.284;9.892;2023-04-03T08:08:11;10.70;99.90
20102;DHT22;10210;52.284;9.892;2023-04-03T08:10:38;11.10;99.90
20102;DHT22;10210;52.284;9.892;2023-04-03T08:13:08;11.50;99.90
20102;DHT22;10210;52.284;9.892;2023-04-03T08:15:35;11.80;99.90
20102;DHT22;10210;52.284;9.892;2023-04-03T08:18:02;12.00;99.90
20102;DHT22;10210;52.284;9.892;2023-04-03T08:20:28;12.30;99.90
20102;DHT22;10210;52.284;9.892;2023-04-03T08:22:54;12.60;99.90
20102;DHT22;10210;52.284;9.892;2023-04-03T08:25:20;12.80;99.90
20102;DHT22;10210;52.284;9.892;2023-04-03T08:27:47;13.00;99.90
20102;DHT22;10210;52.284;9.892;2023-04-03T08:30:13;13.10;99.90
20102;DHT22;10210;52.284;9.892;2023-04-03T08:32:39;13.30;99.90
20102;DHT22;10210;52.284;9.892;2023-04-03T08:35:08;13.40;99.90
20102;DHT22;10210;52.284;9.892;2023-04-03T08:37:38;13.40;99.90
20102;DHT22;10210;52.284;9.892;2023-04-03T08:40:11;13.40;99.90
20102;DHT22;10210;52.284;9.892;2023-04-03T08:45:49;13.50;99.90
20102;DHT22;10210;52.284;9.892;2023-04-03T08:48:27;13.50;99.90
20102;DHT22;10210;52.284;9.892;2023-04-03T08:51:03;13.50;99.90
20102;DHT22;10210;52.284;9.892;2023-04-03T08:53:40;13.70;99.90
20102;DHT22;10210;52.284;9.892;2023-04-03T08:56:10;13.70;99.90
20102;DHT22;10210;52.284;9.892;2023-04-03T08:58:49;13.80;99.90
20102;DHT22;10210;52.284;9.892;2023-04-03T09:01:37;13.80;99.90
20102;DHT22;10210;52.284;9.892;2023-04-03T09:04:12;13.80;99.90
20102;DHT22;10210;52.284;9.892;2023-04-03T09:06:40;13.90;99.90
20102;DHT22;10210;52.284;9.892;2023-04-03T09:09:34;14.00;99.90
20102;DHT22;10210;52.284;9.892;2023-04-03T09:12:24;14.10;99.90
20102;DHT22;10210;52.284;9.892;2023-04-03T09:21:08;14.20;99.90
20102;DHT22;10210;52.284;9.892;2023-04-03T09:23:55;14.20;99.90
20102;DHT22;10210;52.284;9.892;2023-04-03T09:26:35;14.20;99.90
20102;DHT22;10210;52.284;9.892;2023-04-03T09:29:07;14.10;99.90
20102;DHT22;10210;52.284;9.892;2023-04-03T09:31:42;14.10;99.90
20102;DHT22;10210;52.284;9.892;2023-04-03T09:34:32;14.10;99.90
20102;DHT22;10210;52.284;9.892;2023-04-03T09:37:03;14.00;99.90
20102;DHT22;10210;52.284;9.892;2023-04-03T09:39:50;14.00;99.90
20102;DHT22;10210;52.284;9.892;2023-04-03T09:42:23;14.00;99.90
20102;DHT22;10210;52.284;9.892;2023-04-03T09:44:59;13.90;99.90
20102;DHT22;10210;52.284;9.892;2023-04-03T09:47:32;13.80;99.90
20102;DHT22;10210;52.284;9.892;2023-04-03T09:50:19;13.60;99.90
20102;DHT22;10210;52.284;9.892;2023-04-03T09:52:49;13.40;99.90
20102;DHT22;10210;52.284;9.892;2023-04-03T09:55:27;13.20;99.90
20102;DHT22;10210;52.284;9.892;2023-04-03T09:57:59;13.00;99.90
20102;DHT22;10210;52.284;9.892;2023-04-03T10:00:31;12.80;99.90
20102;DHT22;10210;52.284;9.892;2023-04-03T10:03:03;12.70;99.90
20102;DHT22;10210;52.284;9.892;2023-04-03T10:05:40;12.70;99.90
20102;DHT22;10210;52.284;9.892;2023-04-03T10:08:29;12.60;99.90
20102;DHT22;10210;52.284;9.892;2023-04-03T10:11:15;12.60;99.90
20102;DHT22;10210;52.284;9.892;2023-04-03T10:13:57;12.50;99.90
20102;DHT22;10210;52.284;9.892;2023-04-03T10:16:46;12.40;99.90
20102;DHT22;10210;52.284;9.892;2023-04-03T10:22:37;12.10;99.90
20102;DHT22;10210;52.284;9.892;2023-04-03T10:25:36;11.90;99.90
20102;DHT22;10210;52.284;9.892;2023-04-03T10:31:28;11.60;99.90
20102;DHT22;10210;52.284;9.892;2023-04-03T10:34:08;11.60;99.90
20102;DHT22;10210;52.284;9.892;2023-04-03T10:36:51;11.60;99.90
20102;DHT22;10210;52.284;9.892;2023-04-03T10:40:15;11.60;99.90
20102;DHT22;10210;52.284;9.892;2023-04-03T10:42:49;11.60;99.90
20102;DHT22;10210;52.284;9.892;2023-04-03T10:48:55;11.70;99.90
20102;DHT22;10210;52.284;9.892;2023-04-03T10:51:45;11.80;99.90
20102;DHT22;10210;52.284;9.892;2023-04-03T10:54:24;11.90;99.90
20102;DHT22;10210;52.284;9.892;2023-04-03T10:57:06;11.90;99.90
20102;DHT22;10210;52.284;9.892;2023-04-03T11:03:35;11.80;99.90
20102;DHT22;10210;52.284;9.892;2023-04-03T11:06:09;11.70;99.90
20102;DHT22;10210;52.284;9.892;2023-04-03T11:11:37;11.60;99.90
20102;DHT22;10210;52.284;9.892;2023-04-03T11:14:13;11.60;99.90
20102;DHT22;10210;52.284;9.892;2023-04-03T11:20:26;11.50;99.90
20102;DHT22;10210;52.284;9.892;2023-04-03T11:23:03;11.50;99.90
20102;DHT22;10210;52.284;9.892;2023-04-03T11:25:54;11.40;99.90
20102;DHT22;10210;52.284;9.892;2023-04-03T11:28:25;11.40;99.90
20102;DHT22;10210;52.284;9.892;2023-04-03T11:35:06;11.20;99.90
20102;DHT22;10210;52.284;9.892;2023-04-03T11:37:35;11.20;99.90
20102;DHT22;10210;52.284;9.892;2023-04-03T11:42:49;11.10;99.90
20102;DHT22;10210;52.284;9.892;2023-04-03T11:53:25;11.10;99.90
20102;DHT22;10210;52.284;9.892;2023-04-03T11:55:56;11.10;99.90
20102;DHT22;10210;52.284;9.892;2023-04-03T11:58:28;11.00;99.90
20102;DHT22;10210;52.284;9.892;2023-04-03T12:05:57;11.00;99.90
20102;DHT22;10210;52.284;9.892;2023-04-03T12:11:28;11.10;99.90
20102;DHT22;10210;52.284;9.892;2023-04-03T12:32:06;11.20;99.90
20102;DHT22;10210;52.284;9.892;2023-04-03T12:44:25;11.60;99.90
20102;DHT22;10210;52.284;9.892;2023-04-03T12:47:16;11.60;99.90
20102;DHT22;10210;52.284;9.892;2023-04-03T12:49:49;11.60;99.90
20102;DHT22;10210;52.284;9.892;2023-04-03T12:55:19;11.70;99.90
20102;DHT22;10210;52.284;9.892;2023-04-03T12:57:47;11.70;99.90
20102;DHT22;10210;52.284;9.892;2023-04-03T13:03:02;11.60;99.90
20102;DHT22;10210;52.284;9.892;2023-04-03T13:05:30;11.60;99.90
20102;DHT22;10210;52.284;9.892;2023-04-03T13:08:04;11.60;99.90
20102;DHT22;10210;52.284;9.892;2023-04-03T13:10:47;11.60;99.90
20102;DHT22;10210;52.284;9.892;2023-04-03T13:13:17;11.60;99.90
20102;DHT22;10210;52.284;9.892;2023-04-03T13:15:46;11.60;99.90
20102;DHT22;10210;52.284;9.892;2023-04-03T13:18:30;11.60;99.90
20102;DHT22;10210;52.284;9.892;2023-04-03T13:21:15;11.70;99.90
20102;DHT22;10210;52.284;9.892;2023-04-03T13:23:46;11.80;99.90
20102;DHT22;10210;52.284;9.892;2023-04-03T13:26:17;11.90;99.90
20102;DHT22;10210;52.284;9.892;2023-04-03T13:28:46;12.10;99.90
20102;DHT22;10210;52.284;9.892;2023-04-03T13:34:18;12.40;99.90
20102;DHT22;10210;52.284;9.892;2023-04-03T13:36:59;12.50;99.90
20102;DHT22;10210;52.284;9.892;2023-04-03T13:39:32;12.50;99.90
20102;DHT22;10210;52.284;9.892;2023-04-03T13:42:03;12.60;99.90
20102;DHT22;10210;52.284;9.892;2023-04-03T13:44:42;12.50;99.90
20102;DHT22;10210;52.284;9.892;2023-04-03T13:49:40;12.50;99.90
20102;DHT22;10210;52.284;9.892;2023-04-03T13:52:27;12.40;99.90
20102;DHT22;10210;52.284;9.892;2023-04-03T13:54:58;12.40;99.90
20102;DHT22;10210;52.284;9.892;2023-04-03T13:57:26;12.40;99.90
20102;DHT22;10210;52.284;9.892;2023-04-03T13:59:52;12.30;99.90
20102;DHT22;10210;52.284;9.892;2023-04-03T14:02:33;12.30;99.90
20102;DHT22;10210;52.284;9.892;2023-04-03T14:05:01;12.20;99.90
20102;DHT22;10210;52.284;9.892;2023-04-03T14:07:29;12.20;99.90
20102;DHT22;10210;52.284;9.892;2023-04-03T14:09:56;12.20;99.90
20102;DHT22;10210;52.284;9.892;2023-04-03T14:15:01;12.30;99.90
20102;DHT22;10210;52.284;9.892;2023-04-03T14:17:27;12.40;99.90
20102;DHT22;10210;52.284;9.892;2023-04-03T14:19:54;12.50;99.90
20102;DHT22;10210;52.284;9.892;2023-04-03T14:22:32;12.50;99.90
20102;DHT22;10210;52.284;9.892;2023-04-03T14:25:00;12.70;99.90
20102;DHT22;10210;52.284;9.892;2023-04-03T14:27:28;12.70;99.90
20102;DHT22;10210;52.284;9.892;2023-04-03T14:29:58;12.70;99.90
20102;DHT22;10210;52.284;9.892;2023-04-03T14:32:25;12.60;99.90
20102;DHT22;10210;52.284;9.892;2023-04-03T14:34:52;12.50;99.90
20102;DHT22;10210;52.284;9.892;2023-04-03T14:37:21;12.50;99.90
20102;DHT22;10210;52.284;9.892;2023-04-03T14:39:50;12.30;99.90
20102;DHT22;10210;52.284;9.892;2023-04-03T14:42:26;12.30;99.90
20102;DHT22;10210;52.284;9.892;2023-04-03T14:44:56;12.20;99.90
20102;DHT22;10210;52.284;9.892;2023-04-03T14:47:28;12.30;99.90
20102;DHT22;10210;52.284;9.892;2023-04-03T14:50:12;12.30;99.90
20102;DHT22;10210;52.284;9.892;2023-04-03T14:52:42;12.30;99.90
20102;DHT22;10210;52.284;9.892;2023-04-03T14:55:08;12.40;99.90
20102;DHT22;10210;52.284;9.892;2023-04-03T14:57:34;12.50;99.90
20102;DHT22;10210;52.284;9.892;2023-04-03T15:00:00;12.60;99.90
20102;DHT22;10210;52.284;9.892;2023-04-03T15:02:30;12.60;99.90
20102;DHT22;10210;52.284;9.892;2023-04-03T15:05:02;12.70;99.90
20102;DHT22;10210;52.284;9.892;2023-04-03T15:07:32;12.70;99.90
20102;DHT22;10210;52.284;9.892;2023-04-03T15:10:23;12.70;99.90
20102;DHT22;10210;52.284;9.892;2023-04-03T15:12:52;12.70;99.90
20102;DHT22;10210;52.284;9.892;2023-04-03T15:15:19;12.70;99.90
20102;DHT22;10210;52.284;9.892;2023-04-03T15:17:50;12.70;99.90
20102;DHT22;10210;52.284;9.892;2023-04-03T15:20:21;12.70;99.90
20102;DHT22;10210;52.284;9.892;2023-04-03T15:22:49;12.70;99.90
20102;DHT22;10210;52.284;9.892;2023-04-03T15:25:15;12.70;99.90
20102;DHT22;10210;52.284;9.892;2023-04-03T15:27:41;12.80;99.90
20102;DHT22;10210;52.284;9.892;2023-04-03T15:30:13;12.80;99.90
20102;DHT22;10210;52.284;9.892;2023-04-03T15:32:40;12.80;99.90
20102;DHT22;10210;52.284;9.892;2023-04-03T15:35:15;12.80;99.90
20102;DHT22;10210;52.284;9.892;2023-04-03T15:37:41;12.80;99.90
20102;DHT22;10210;52.284;9.892;2023-04-03T15:40:07;12.90;99.90
20102;DHT22;10210;52.284;9.892;2023-04-03T15:42:34;12.90;99.90
20102;DHT22;10210;52.284;9.892;2023-04-03T15:44:59;12.90;99.90
20102;DHT22;10210;52.284;9.892;2023-04-03T15:47:25;12.80;99.90
20102;DHT22;10210;52.284;9.892;2023-04-03T15:49:53;12.80;99.90
20102;DHT22;10210;52.284;9.892;2023-04-03T15:52:19;12.80;99.90
20102;DHT22;10210;52.284;9.892;2023-04-03T15:54:45;12.80;99.90
20102;DHT22;10210;52.284;9.892;2023-04-03T15:57:11;12.80;99.90
20102;DHT22;10210;52.284;9.892;2023-04-03T15:59:36;12.80;99.90
20102;DHT22;10210;52.284;9.892;2023-04-03T16:02:04;12.80;99.90
20102;DHT22;10210;52.284;9.892;2023-04-03T16:04:32;12.70;99.90
20102;DHT22;10210;52.284;9.892;2023-04-03T16:07:03;12.60;99.90
20102;DHT22;10210;52.284;9.892;2023-04-03T16:09:30;12.60;99.90
20102;DHT22;10210;52.284;9.892;2023-04-03T16:11:58;12.40;99.90
20102;DHT22;10210;52.284;9.892;2023-04-03T16:14:23;12.30;99.90
20102;DHT22;10210;52.284;9.892;2023-04-03T16:16:49;12.30;99.90
20102;DHT22;10210;52.284;9.892;2023-04-03T16:19:15;12.20;99.90
20102;DHT22;10210;52.284;9.892;2023-04-03T16:21:41;12.10;99.90
20102;DHT22;10210;52.284;9.892;2023-04-03T16:24:07;12.00;99.90
20102;DHT22;10210;52.284;9.892;2023-04-03T16:26:32;12.00;99.90
20102;DHT22;10210;52.284;9.892;2023-04-03T16:28:59;11.90;99.90
20102;DHT22;10210;52.284;9.892;2023-04-03T16:31:25;11.90;99.90
20102;DHT22;10210;52.284;9.892;2023-04-03T16:33:55;11.90;99.90
20102;DHT22;10210;52.284;9.892;2023-04-03T16:36:21;11.90;99.90
20102;DHT22;10210;52.284;9.892;2023-04-03T16:38:47;11.90;99.90
20102;DHT22;10210;52.284;9.892;2023-04-03T16:41:12;11.90;99.90
20102;DHT22;10210;52.284;9.892;2023-04-03T16:43:38;11.80;99.90
20102;DHT22;10210;52.284;9.892;2023-04-03T16:46:07;11.80;99.90
20102;DHT22;10210;52.284;9.892;2023-04-03T16:48:35;11.70;99.90
20102;DHT22;10210;52.284;9.892;2023-04-03T16:51:01;11.70;99.90
20102;DHT22;10210;52.284;9.892;2023-04-03T16:53:27;11.60;99.90
20102;DHT22;10210;52.284;9.892;2023-04-03T16:55:53;11.50;99.90
20102;DHT22;10210;52.284;9.892;2023-04-03T16:58:21;11.40;99.90
20102;DHT22;10210;52.284;9.892;2023-04-03T17:00:47;11.40;99.90
20102;DHT22;10210;52.284;9.892;2023-04-03T17:03:12;11.30;99.90
20102;DHT22;10210;52.284;9.892;2023-04-03T17:05:38;11.30;99.90
20102;DHT22;10210;52.284;9.892;2023-04-03T17:08:04;11.20;99.90
20102;DHT22;10210;52.284;9.892;2023-04-03T17:10:29;11.20;99.90
20102;DHT22;10210;52.284;9.892;2023-04-03T17:12:55;11.20;99.90
20102;DHT22;10210;52.284;9.892;2023-04-03T17:15:39;11.10;99.90
20102;DHT22;10210;52.284;9.892;2023-04-03T17:18:06;11.10;99.90
20102;DHT22;10210;52.284;9.892;2023-04-03T17:20:32;11.00;99.90
20102;DHT22;10210;52.284;9.892;2023-04-03T17:23:04;11.00;99.90
20102;DHT22;10210;52.284;9.892;2023-04-03T17:25:30;10.90;99.90
20102;DHT22;10210;52.284;9.892;2023-04-03T17:27:56;10.80;99.90
20102;DHT22;10210;52.284;9.892;2023-04-03T17:30:22;10.80;99.90
20102;DHT22;10210;52.284;9.892;2023-04-03T17:32:48;10.70;99.90
20102;DHT22;10210;52.284;9.892;2023-04-03T17:35:13;10.70;99.90
20102;DHT22;10210;52.284;9.892;2023-04-03T17:37:39;10.70;99.90
20102;DHT22;10210;52.284;9.892;2023-04-03T17:40:06;10.60;99.90